createdAt,value
2022-09-25T00:00:45.823Z,7.34
2022-09-25T00:01:45.878Z,7.48
2022-09-25T00:02:45.912Z,7.47
2022-09-25T00:03:45.793Z,7.45
2022-09-25T00:04:45.861Z,7.36
2022-09-25T00:05:45.814Z,7.37
2022-09-25T00:06:45.760Z,7.36
2022-09-25T00:07:45.753Z,7.45
2022-09-25T00:08:45.738Z,7.33
2022-09-25T00:09:45.727Z,7.42
2022-09-25T00:10:45.830Z,7.45
2022-09-25T00:11:45.706Z,7.39
2022-09-25T00:12:45.695Z,7.41
2022-09-25T00:13:45.683Z,7.48
2022-09-25T00:14:45.671Z,7.44
2022-09-25T00:15:45.658Z,7.39
2022-09-25T00:16:45.779Z,7.39
2022-09-25T00:17:45.637Z,7.47
2022-09-25T00:18:45.632Z,7.32
2022-09-25T00:19:45.615Z,7.36
2022-09-25T00:20:45.608Z,7.44
2022-09-25T00:21:45.599Z,7.36
2022-09-25T00:22:45.701Z,7.36
2022-09-25T00:23:45.579Z,7.45
2022-09-25T00:24:45.562Z,7.34
2022-09-25T00:25:45.611Z,7.34
2022-09-25T00:26:45.651Z,7.41
2022-09-25T00:27:45.595Z,7.41
2022-09-25T00:28:45.586Z,7.34
2022-09-25T00:29:45.504Z,7.32
2022-09-25T00:30:45.536Z,7.42
2022-09-25T00:31:45.484Z,7.42
2022-09-25T00:32:45.490Z,7.33
2022-09-25T00:33:45.565Z,7.44
2022-09-25T00:34:45.450Z,7.37
2022-09-25T00:35:45.439Z,7.33
2022-09-25T00:36:45.433Z,7.45
2022-09-25T00:37:45.421Z,7.39
2022-09-25T00:38:45.409Z,7.41
2022-09-25T00:39:45.492Z,7.41
2022-09-25T00:40:45.492Z,7.32
2022-09-25T00:41:45.373Z,7.32
2022-09-25T00:42:45.389Z,7.39
2022-09-25T00:43:45.351Z,7.41
2022-09-25T00:44:45.343Z,7.29
2022-09-25T00:45:45.464Z,7.37
2022-09-25T00:46:45.330Z,7.36
2022-09-25T00:47:45.333Z,7.32
2022-09-25T00:48:45.303Z,7.45
2022-09-25T00:49:45.298Z,7.36
2022-09-25T00:50:45.276Z,7.33
2022-09-25T00:51:45.342Z,7.42
2022-09-25T00:52:45.250Z,7.39
2022-09-25T00:53:45.241Z,7.44
2022-09-25T00:54:45.231Z,7.36
2022-09-25T00:55:45.221Z,7.41
2022-09-25T00:56:45.313Z,7.41
2022-09-25T00:57:45.261Z,7.41
2022-09-25T00:58:45.208Z,7.39
2022-09-25T00:59:45.198Z,7.48
2022-09-25T01:00:45.164Z,7.36
2022-09-25T01:01:45.240Z,7.33
2022-09-25T01:02:45.258Z,7.34
2022-09-25T01:03:45.129Z,7.33
2022-09-25T01:04:45.181Z,7.30
2022-09-25T01:05:45.111Z,7.41
2022-09-25T01:06:45.105Z,7.33
2022-09-25T01:07:45.107Z,7.33
2022-09-25T01:08:45.078Z,7.37
2022-09-25T01:09:45.067Z,7.33
2022-09-25T01:10:45.151Z,7.37
2022-09-25T01:11:45.046Z,7.44
2022-09-25T01:12:45.140Z,7.34
2022-09-25T01:13:45.022Z,7.24
2022-09-25T01:14:45.040Z,7.27
2022-09-25T01:15:45.001Z,7.33
2022-09-25T01:16:45.055Z,7.26
2022-09-25T01:17:44.983Z,7.19
2022-09-25T01:18:44.983Z,7.41
2022-09-25T01:19:45.170Z,7.36
2022-09-25T01:20:44.946Z,7.34
2022-09-25T01:21:44.935Z,7.23
2022-09-25T01:22:44.980Z,7.24
2022-09-25T01:23:45.136Z,7.18
2022-09-25T01:24:44.904Z,7.30
2022-09-25T01:25:44.898Z,7.36
2022-09-25T01:26:44.894Z,7.23
2022-09-25T01:27:44.894Z,7.32
2022-09-25T01:28:44.877Z,7.30
2022-09-25T01:29:44.849Z,7.26
2022-09-25T01:30:44.890Z,7.37
2022-09-25T01:31:44.825Z,7.36
2022-09-25T01:32:44.825Z,7.37
2022-09-25T01:33:44.805Z,7.23
2022-09-25T01:34:44.863Z,7.39
2022-09-25T01:35:44.784Z,7.42
2022-09-25T01:36:44.773Z,7.39
2022-09-25T01:37:44.758Z,7.34
2022-09-25T01:38:44.855Z,7.34
2022-09-25T01:39:44.738Z,7.32
2022-09-25T01:40:44.773Z,7.33
2022-09-25T01:41:44.719Z,7.27
2022-09-25T01:42:44.705Z,7.30
2022-09-25T01:43:44.692Z,7.23
2022-09-25T01:44:44.694Z,7.24
2022-09-25T01:45:44.754Z,7.26
2022-09-25T01:46:44.720Z,7.29
2022-09-25T01:47:44.652Z,7.21
2022-09-25T01:48:44.639Z,7.27
2022-09-25T01:49:44.650Z,7.19
2022-09-25T01:50:44.628Z,7.19
2022-09-25T01:51:44.606Z,7.26
2022-09-25T01:52:44.641Z,7.21
2022-09-25T01:53:47.791Z,7.30
2022-09-25T01:54:44.586Z,7.16
2022-09-25T01:55:44.564Z,7.16
2022-09-25T01:56:44.609Z,7.29
2022-09-25T01:57:44.544Z,7.15
2022-09-25T01:58:44.542Z,7.26
2022-09-25T01:59:44.581Z,7.15
2022-09-25T02:00:44.507Z,7.24
2022-09-25T02:01:44.583Z,7.27
2022-09-25T02:02:44.569Z,7.32
2022-09-25T02:03:44.475Z,7.33
2022-09-25T02:04:44.692Z,7.23
2022-09-25T02:05:44.465Z,7.27
2022-09-25T02:06:44.440Z,7.27
2022-09-25T02:07:44.497Z,7.21
2022-09-25T02:08:44.425Z,7.07
2022-09-25T02:09:44.414Z,7.19
2022-09-25T02:10:44.413Z,7.16
2022-09-25T02:11:44.383Z,7.11
2022-09-25T02:12:44.388Z,7.18
2022-09-25T02:13:44.363Z,7.16
2022-09-25T02:14:44.391Z,7.30
2022-09-25T02:15:44.345Z,7.18
2022-09-25T02:16:44.464Z,7.18
2022-09-25T02:17:44.321Z,7.07
2022-09-25T02:18:44.348Z,7.12
2022-09-25T02:19:44.303Z,7.14
2022-09-25T02:20:44.332Z,7.23
2022-09-25T02:21:44.274Z,7.15
2022-09-25T02:22:44.277Z,7.16
2022-09-25T02:23:44.254Z,7.14
2022-09-25T02:24:44.243Z,7.00
2022-09-25T02:25:44.441Z,7.08
2022-09-25T02:26:44.226Z,7.14
2022-09-25T02:27:44.248Z,7.09
2022-09-25T02:28:44.214Z,7.14
2022-09-25T02:29:44.190Z,7.16
2022-09-25T02:30:44.279Z,7.11
2022-09-25T02:31:44.166Z,7.15
2022-09-25T02:32:44.153Z,7.12
2022-09-25T02:33:44.412Z,7.11
2022-09-25T02:34:44.172Z,7.11
2022-09-25T02:35:44.129Z,7.07
2022-09-25T02:36:44.112Z,7.18
2022-09-25T02:37:44.106Z,7.08
2022-09-25T02:38:44.088Z,7.15
2022-09-25T02:39:44.160Z,7.14
2022-09-25T02:40:44.145Z,7.14
2022-09-25T02:41:44.058Z,7.12
2022-09-25T02:42:44.045Z,7.08
2022-09-25T02:43:44.037Z,7.08
2022-09-25T02:44:44.023Z,7.15
2022-09-25T02:45:44.171Z,7.04
2022-09-25T02:46:43.998Z,7.15
2022-09-25T02:47:43.992Z,7.11
2022-09-25T02:48:43.998Z,7.05
2022-09-25T02:49:43.971Z,7.12
2022-09-25T02:50:43.981Z,7.19
2022-09-25T02:51:44.007Z,7.24
2022-09-25T02:52:43.942Z,7.18
2022-09-25T02:53:43.937Z,7.19
2022-09-25T02:54:43.916Z,7.21
2022-09-25T02:55:43.915Z,7.14
2022-09-25T02:56:43.890Z,7.23
2022-09-25T02:57:43.974Z,7.16
2022-09-25T02:58:43.870Z,7.14
2022-09-25T02:59:43.863Z,7.27
2022-09-25T03:00:43.851Z,7.19
2022-09-25T03:01:43.915Z,7.27
2022-09-25T03:02:48.132Z,7.24
2022-09-25T03:03:44.882Z,7.33
2022-09-25T03:04:43.803Z,7.16
2022-09-25T03:05:43.801Z,7.15
2022-09-25T03:06:43.820Z,7.18
2022-09-25T03:07:43.769Z,7.21
2022-09-25T03:08:43.770Z,7.19
2022-09-25T03:09:43.758Z,7.14
2022-09-25T03:10:43.739Z,7.23
2022-09-25T03:11:43.808Z,7.33
2022-09-25T03:12:43.732Z,7.19
2022-09-25T03:13:43.704Z,7.24
2022-09-25T03:14:43.698Z,7.18
2022-09-25T03:15:43.704Z,7.27
2022-09-25T03:16:43.722Z,7.27
2022-09-25T03:17:43.721Z,7.29
2022-09-25T03:18:43.665Z,7.16
2022-09-25T03:19:43.642Z,7.24
2022-09-25T03:20:43.640Z,7.24
2022-09-25T03:21:43.676Z,7.15
2022-09-25T03:22:43.634Z,7.16
2022-09-25T03:23:43.603Z,7.12
2022-09-25T03:24:43.596Z,7.19
2022-09-25T03:25:48.997Z,7.14
2022-09-25T03:26:44.564Z,7.29
2022-09-25T03:27:43.623Z,7.19
2022-09-25T03:28:43.542Z,7.15
2022-09-25T03:29:43.551Z,7.19
2022-09-25T03:30:43.567Z,7.30
2022-09-25T03:31:43.507Z,7.16
2022-09-25T03:32:43.501Z,7.15
2022-09-25T03:33:43.553Z,7.14
2022-09-25T03:34:43.491Z,7.14
2022-09-25T03:35:43.464Z,7.26
2022-09-25T03:36:43.452Z,7.12
2022-09-25T03:37:43.446Z,7.12
2022-09-25T03:38:43.456Z,7.11
2022-09-25T03:39:43.452Z,7.16
2022-09-25T03:40:43.545Z,7.11
2022-09-25T03:41:43.512Z,7.09
2022-09-25T03:42:43.389Z,7.12
2022-09-25T03:43:43.378Z,7.09
2022-09-25T03:44:43.378Z,7.16
2022-09-25T03:45:43.453Z,7.16
2022-09-25T03:46:43.348Z,7.11
2022-09-25T03:47:43.369Z,7.05
2022-09-25T03:48:43.338Z,7.09
2022-09-25T03:49:43.332Z,7.08
2022-09-25T03:50:43.300Z,7.15
2022-09-25T03:51:43.387Z,7.11
2022-09-25T03:52:43.293Z,7.08
2022-09-25T03:53:43.267Z,6.99
2022-09-25T03:54:43.287Z,7.12
2022-09-25T03:55:43.245Z,7.04
2022-09-25T03:56:43.248Z,7.11
2022-09-25T03:57:43.273Z,7.12
2022-09-25T03:58:43.213Z,7.08
2022-09-25T03:59:43.209Z,7.12
2022-09-25T04:00:43.189Z,7.14
2022-09-25T04:01:43.220Z,7.09
2022-09-25T04:02:43.277Z,7.09
2022-09-25T04:03:43.225Z,7.15
2022-09-25T04:04:43.148Z,7.11
2022-09-25T04:05:43.196Z,7.14
2022-09-25T04:06:43.124Z,7.15
2022-09-25T04:07:43.112Z,7.08
2022-09-25T04:08:43.224Z,7.15
2022-09-25T04:09:43.116Z,7.14
2022-09-25T04:10:43.119Z,7.19
2022-09-25T04:11:43.075Z,7.12
2022-09-25T04:12:43.056Z,7.18
2022-09-25T04:13:43.045Z,7.18
2022-09-25T04:14:43.052Z,7.04
2022-09-25T04:15:43.025Z,7.09
2022-09-25T04:16:43.179Z,7.09
2022-09-25T04:17:43.001Z,7.09
2022-09-25T04:18:43.206Z,7.04
2022-09-25T04:19:42.982Z,7.01
2022-09-25T04:20:42.990Z,7.05
2022-09-25T04:21:42.956Z,7.15
2022-09-25T04:22:43.028Z,7.00
2022-09-25T04:23:42.937Z,7.14
2022-09-25T04:24:42.926Z,7.15
2022-09-25T04:25:42.914Z,7.11
2022-09-25T04:26:43.113Z,7.11
2022-09-25T04:27:42.892Z,7.14
2022-09-25T04:28:42.955Z,7.07
2022-09-25T04:29:42.868Z,7.15
2022-09-25T04:30:42.868Z,7.08
2022-09-25T04:31:42.881Z,7.19
2022-09-25T04:32:42.849Z,7.14
2022-09-25T04:33:42.824Z,7.05
2022-09-25T04:34:42.896Z,6.99
2022-09-25T04:35:42.807Z,7.05
2022-09-25T04:36:43.007Z,6.96
2022-09-25T04:37:42.784Z,7.04
2022-09-25T04:38:42.784Z,7.01
2022-09-25T04:39:42.776Z,6.93
2022-09-25T04:40:42.908Z,7.05
2022-09-25T04:41:42.748Z,7.01
2022-09-25T04:42:42.840Z,7.04
2022-09-25T04:43:42.734Z,6.93
2022-09-25T04:44:42.746Z,7.05
2022-09-25T04:45:42.858Z,7.04
2022-09-25T04:46:42.772Z,6.91
2022-09-25T04:47:42.677Z,6.91
2022-09-25T04:48:42.664Z,6.93
2022-09-25T04:49:42.651Z,6.97
2022-09-25T04:50:42.660Z,6.89
2022-09-25T04:51:42.685Z,6.87
2022-09-25T04:52:42.626Z,6.87
2022-09-25T04:53:42.608Z,7.04
2022-09-25T04:54:42.598Z,6.90
2022-09-25T04:55:42.589Z,6.96
2022-09-25T04:56:42.589Z,6.86
2022-09-25T04:57:57.819Z,6.94
2022-09-25T04:58:43.632Z,6.89
2022-09-25T04:59:42.562Z,6.94
2022-09-25T05:00:42.530Z,6.94
2022-09-25T05:01:42.707Z,6.96
2022-09-25T05:02:42.685Z,6.86
2022-09-25T05:03:42.614Z,6.93
2022-09-25T05:04:43.271Z,6.93
2022-09-25T05:05:42.477Z,6.89
2022-09-25T05:06:42.478Z,6.82
2022-09-25T05:07:42.452Z,6.94
2022-09-25T05:08:42.442Z,6.82
2022-09-25T05:09:42.437Z,6.86
2022-09-25T05:10:42.518Z,6.86
2022-09-25T05:11:42.419Z,6.86
2022-09-25T05:12:42.399Z,6.79
2022-09-25T05:13:42.462Z,6.91
2022-09-25T05:14:42.403Z,6.94
2022-09-25T05:15:42.366Z,6.94
2022-09-25T05:16:42.452Z,6.99
2022-09-25T05:17:42.344Z,6.87
2022-09-25T05:18:42.431Z,6.83
2022-09-25T05:19:42.321Z,6.97
2022-09-25T05:20:42.314Z,7.04
2022-09-25T05:21:42.304Z,6.96
2022-09-25T05:22:42.354Z,7.01
2022-09-25T05:23:42.276Z,7.01
2022-09-25T05:24:42.386Z,6.94
2022-09-25T05:25:42.255Z,6.97
2022-09-25T05:26:42.257Z,6.99
2022-09-25T05:27:42.234Z,7.07
2022-09-25T05:28:42.226Z,7.04
2022-09-25T05:29:42.265Z,6.96
2022-09-25T05:30:42.235Z,6.91
2022-09-25T05:31:42.302Z,6.97
2022-09-25T05:32:42.218Z,7.01
2022-09-25T05:33:42.173Z,7.05
2022-09-25T05:34:42.157Z,6.99
2022-09-25T05:35:42.217Z,7.05
2022-09-25T05:36:42.132Z,7.08
2022-09-25T05:37:42.126Z,7.15
2022-09-25T05:38:42.126Z,7.11
2022-09-25T05:39:42.106Z,7.16
2022-09-25T05:40:42.182Z,7.15
2022-09-25T05:41:42.167Z,7.12
2022-09-25T05:42:42.071Z,7.09
2022-09-25T05:43:42.056Z,7.04
2022-09-25T05:44:42.082Z,7.09
2022-09-25T05:45:42.056Z,7.05
2022-09-25T05:46:42.110Z,7.14
2022-09-25T05:47:42.109Z,7.12
2022-09-25T05:48:42.026Z,7.09
2022-09-25T05:49:42.014Z,7.15
2022-09-25T05:50:41.988Z,7.09
2022-09-25T05:51:41.973Z,7.07
2022-09-25T05:52:41.955Z,6.96
2022-09-25T05:53:42.010Z,7.05
2022-09-25T05:54:41.940Z,7.00
2022-09-25T05:55:41.934Z,7.08
2022-09-25T05:56:41.913Z,7.18
2022-09-25T05:57:41.900Z,7.12
2022-09-25T05:58:41.895Z,7.21
2022-09-25T05:59:41.883Z,7.21
2022-09-25T06:00:41.941Z,7.12
2022-09-25T06:01:41.930Z,7.15
2022-09-25T06:02:42.045Z,7.11
2022-09-25T06:03:41.840Z,7.21
2022-09-25T06:04:41.823Z,7.32
2022-09-25T06:05:41.815Z,7.30
2022-09-25T06:06:41.876Z,7.33
2022-09-25T06:07:41.803Z,7.26
2022-09-25T06:08:41.782Z,7.24
2022-09-25T06:09:41.771Z,7.34
2022-09-25T06:10:41.763Z,7.33
2022-09-25T06:11:41.750Z,7.36
2022-09-25T06:12:41.814Z,7.45
2022-09-25T06:13:41.810Z,7.45
2022-09-25T06:14:41.713Z,7.44
2022-09-25T06:15:41.895Z,7.52
2022-09-25T06:16:41.691Z,7.48
2022-09-25T06:17:41.681Z,7.51
2022-09-25T06:18:41.725Z,7.39
2022-09-25T06:19:41.671Z,7.47
2022-09-25T06:20:41.645Z,7.48
2022-09-25T06:21:41.636Z,7.48
2022-09-25T06:22:41.628Z,7.48
2022-09-25T06:23:41.656Z,7.50
2022-09-25T06:24:41.690Z,7.51
2022-09-25T06:25:41.592Z,7.58
2022-09-25T06:26:41.586Z,7.55
2022-09-25T06:27:41.572Z,7.60
2022-09-25T06:28:41.567Z,7.55
2022-09-25T06:29:41.547Z,7.62
2022-09-25T06:30:41.561Z,7.71
2022-09-25T06:31:41.634Z,7.63
2022-09-25T06:32:41.518Z,7.69
2022-09-25T06:33:41.548Z,7.67
2022-09-25T06:34:41.528Z,7.71
2022-09-25T06:35:41.498Z,7.77
2022-09-25T06:36:41.517Z,7.71
2022-09-25T06:37:41.469Z,7.84
2022-09-25T06:38:41.564Z,7.88
2022-09-25T06:39:41.438Z,7.92
2022-09-25T06:40:41.969Z,7.88
2022-09-25T06:41:41.462Z,7.95
2022-09-25T06:42:41.414Z,7.96
2022-09-25T06:43:41.395Z,7.99
2022-09-25T06:44:41.407Z,8.03
2022-09-25T06:45:41.379Z,8.20
2022-09-25T06:46:41.469Z,8.20
2022-09-25T06:47:41.413Z,8.17
2022-09-25T06:48:41.341Z,8.28
2022-09-25T06:49:41.327Z,8.34
2022-09-25T06:50:41.366Z,8.31
2022-09-25T06:51:41.308Z,8.24
2022-09-25T06:52:41.299Z,8.29
2022-09-25T06:53:41.385Z,8.34
2022-09-25T06:54:44.228Z,8.42
2022-09-25T06:55:41.266Z,8.54
2022-09-25T06:56:41.261Z,8.40
2022-09-25T06:57:41.239Z,8.31
2022-09-25T06:58:41.231Z,8.42
2022-09-25T06:59:41.266Z,8.29
2022-09-25T07:00:41.206Z,8.42
2022-09-25T07:01:41.287Z,8.25
2022-09-25T07:02:41.258Z,8.47
2022-09-25T07:03:41.171Z,8.50
2022-09-25T07:04:41.163Z,8.39
2022-09-25T07:05:41.202Z,8.43
2022-09-25T07:06:41.174Z,8.57
2022-09-25T07:07:41.137Z,8.52
2022-09-25T07:08:41.117Z,8.63
2022-09-25T07:09:41.105Z,8.65
2022-09-25T07:10:45.599Z,8.68
2022-09-25T07:11:41.153Z,8.68
2022-09-25T07:12:41.069Z,8.64
2022-09-25T07:13:41.061Z,8.78
2022-09-25T07:14:41.050Z,8.73
2022-09-25T07:15:41.098Z,8.64
2022-09-25T07:16:41.036Z,8.67
2022-09-25T07:17:41.086Z,8.67
2022-09-25T07:18:41.012Z,8.76
2022-09-25T07:19:41.001Z,8.67
2022-09-25T07:20:40.983Z,8.67
2022-09-25T07:21:40.976Z,8.64
2022-09-25T07:22:40.997Z,8.73
2022-09-25T07:23:41.016Z,8.68
2022-09-25T07:24:40.941Z,8.70
2022-09-25T07:25:40.930Z,8.65
2022-09-25T07:26:43.192Z,8.75
2022-09-25T07:27:40.910Z,8.75
2022-09-25T07:28:40.965Z,8.79
2022-09-25T07:29:40.997Z,8.79
2022-09-25T07:30:41.015Z,8.94
2022-09-25T07:31:40.996Z,8.91
2022-09-25T07:32:40.858Z,8.96
2022-09-25T07:33:40.850Z,8.98
2022-09-25T07:34:40.847Z,8.86
2022-09-25T07:35:40.830Z,8.93
2022-09-25T07:36:40.861Z,9.01
2022-09-25T07:37:40.805Z,9.03
2022-09-25T07:38:40.822Z,9.10
2022-09-25T07:39:40.880Z,8.96
2022-09-25T07:40:40.811Z,8.89
2022-09-25T07:41:40.755Z,8.88
2022-09-25T07:42:40.803Z,8.80
2022-09-25T07:43:40.779Z,8.96
2022-09-25T07:44:44.671Z,9.01
2022-09-25T07:45:41.721Z,9.06
2022-09-25T07:46:40.748Z,9.19
2022-09-25T07:47:40.689Z,9.32
2022-09-25T07:48:40.763Z,9.37
2022-09-25T07:49:40.665Z,9.60
2022-09-25T07:50:40.652Z,9.67
2022-09-25T07:51:40.644Z,10.10
2022-09-25T07:52:40.633Z,10.38
2022-09-25T07:53:40.627Z,10.36
2022-09-25T07:54:40.681Z,10.36
2022-09-25T07:55:40.596Z,10.36
2022-09-25T07:56:40.586Z,10.14
2022-09-25T07:57:40.597Z,10.18
2022-09-25T07:58:40.562Z,10.02
2022-09-25T07:59:40.558Z,9.91
2022-09-25T08:00:40.621Z,9.85
2022-09-25T08:01:44.189Z,9.92
2022-09-25T08:02:41.567Z,9.88
2022-09-25T08:03:40.511Z,9.80
2022-09-25T08:04:40.510Z,9.78
2022-09-25T08:05:40.516Z,9.91
2022-09-25T08:06:40.481Z,10.16
2022-09-25T08:07:40.466Z,10.57
2022-09-25T08:08:40.480Z,10.99
2022-09-25T08:09:40.540Z,11.08
2022-09-25T08:10:40.543Z,10.90
2022-09-25T08:11:40.423Z,11.30
2022-09-25T08:12:40.461Z,11.85
2022-09-25T08:13:40.403Z,12.07
2022-09-25T08:14:40.404Z,12.62
2022-09-25T08:15:40.469Z,12.52
2022-09-25T08:16:40.462Z,12.54
2022-09-25T08:17:40.363Z,12.80
2022-09-25T08:18:40.362Z,12.95
2022-09-25T08:19:40.346Z,13.04
2022-09-25T08:20:40.328Z,12.73
2022-09-25T08:21:40.385Z,12.96
2022-09-25T08:22:40.316Z,12.98
2022-09-25T08:23:42.900Z,13.07
2022-09-25T08:24:41.279Z,12.98
2022-09-25T08:25:40.283Z,13.24
2022-09-25T08:26:40.285Z,13.03
2022-09-25T08:27:40.301Z,12.66
2022-09-25T08:28:40.237Z,12.61
2022-09-25T08:29:40.242Z,12.56
2022-09-25T08:30:40.291Z,12.62
2022-09-25T08:31:40.247Z,12.89
2022-09-25T08:32:40.195Z,13.22
2022-09-25T08:33:40.246Z,13.59
2022-09-25T08:34:41.653Z,13.81
2022-09-25T08:35:40.156Z,13.76
2022-09-25T08:36:40.151Z,13.84
2022-09-25T08:37:40.144Z,13.87
2022-09-25T08:38:40.215Z,14.04
2022-09-25T08:39:40.113Z,13.38
2022-09-25T08:40:44.431Z,13.01
2022-09-25T08:41:41.093Z,12.05
2022-09-25T08:42:40.105Z,11.84
2022-09-25T08:43:40.074Z,12.03
2022-09-25T08:44:40.086Z,12.05
2022-09-25T08:45:40.054Z,12.49
2022-09-25T08:46:40.090Z,12.43
2022-09-25T08:47:40.029Z,12.40
2022-09-25T08:48:40.026Z,12.41
2022-09-25T08:49:40.017Z,12.31
2022-09-25T08:50:40.198Z,12.29
2022-09-25T08:51:39.982Z,12.21
2022-09-25T08:52:39.973Z,12.30
2022-09-25T08:53:39.964Z,12.31
2022-09-25T08:54:42.143Z,12.23
2022-09-25T08:55:40.951Z,12.71
2022-09-25T08:56:39.950Z,12.63
2022-09-25T08:57:39.919Z,12.33
2022-09-25T08:58:39.935Z,11.87
2022-09-25T08:59:39.906Z,11.39
2022-09-25T09:00:39.899Z,12.07
2022-09-25T09:01:39.985Z,12.36
2022-09-25T09:02:39.999Z,12.59
2022-09-25T09:03:39.863Z,12.51
2022-09-25T09:04:39.851Z,12.55
2022-09-25T09:05:39.831Z,13.07
2022-09-25T09:06:39.839Z,13.43
2022-09-25T09:07:39.813Z,13.46
2022-09-25T09:08:39.873Z,13.75
2022-09-25T09:09:39.795Z,13.71
2022-09-25T09:10:39.777Z,13.38
2022-09-25T09:11:39.769Z,13.65
2022-09-25T09:12:39.777Z,13.31
2022-09-25T09:13:39.740Z,13.38
2022-09-25T09:14:39.762Z,13.84
2022-09-25T09:15:40.104Z,13.99
2022-09-25T09:16:39.715Z,14.52
2022-09-25T09:17:39.700Z,14.20
2022-09-25T09:18:39.691Z,13.90
2022-09-25T09:19:39.679Z,14.41
2022-09-25T09:20:39.726Z,13.80
2022-09-25T09:21:39.658Z,13.69
2022-09-25T09:22:39.645Z,13.71
2022-09-25T09:23:39.633Z,13.41
2022-09-25T09:24:39.622Z,13.36
2022-09-25T09:25:39.609Z,13.32
2022-09-25T09:26:39.674Z,13.06
2022-09-25T09:27:39.603Z,12.87
2022-09-25T09:28:39.580Z,12.55
2022-09-25T09:29:39.614Z,12.46
2022-09-25T09:30:39.642Z,12.31
2022-09-25T09:31:39.547Z,12.04
2022-09-25T09:32:39.586Z,11.74
2022-09-25T09:33:39.524Z,11.78
2022-09-25T09:35:04.033Z,11.81
2022-09-25T09:35:40.503Z,11.79
2022-09-25T09:36:39.494Z,11.81
2022-09-25T09:37:39.536Z,11.88
2022-09-25T09:38:39.484Z,11.88
2022-09-25T09:39:39.463Z,11.97
2022-09-25T09:40:39.549Z,11.81
2022-09-25T09:41:39.441Z,11.84
2022-09-25T09:42:39.434Z,11.57
2022-09-25T09:43:39.538Z,11.72
2022-09-25T09:44:39.405Z,11.72
2022-09-25T09:45:39.397Z,12.00
2022-09-25T09:46:39.633Z,12.07
2022-09-25T09:47:39.409Z,12.73
2022-09-25T09:48:39.379Z,12.61
2022-09-25T09:49:39.427Z,12.61
2022-09-25T09:50:42.873Z,12.48
2022-09-25T09:51:39.332Z,12.58
2022-09-25T09:52:39.315Z,12.49
2022-09-25T09:53:39.312Z,12.29
2022-09-25T09:54:39.390Z,12.15
2022-09-25T09:55:39.285Z,12.26
2022-09-25T09:56:39.271Z,12.25
2022-09-25T09:57:39.265Z,12.43
2022-09-25T09:58:39.253Z,12.48
2022-09-25T09:59:39.249Z,12.59
2022-09-25T10:00:39.276Z,12.22
2022-09-25T10:01:42.037Z,12.26
2022-09-25T10:02:39.393Z,12.54
2022-09-25T10:03:39.199Z,12.58
2022-09-25T10:04:39.190Z,12.40
2022-09-25T10:05:39.182Z,12.37
2022-09-25T10:06:39.211Z,12.41
2022-09-25T10:07:39.154Z,12.33
2022-09-25T10:08:39.356Z,12.40
2022-09-25T10:09:39.135Z,12.59
2022-09-25T10:10:39.136Z,12.71
2022-09-25T10:11:39.115Z,12.51
2022-09-25T10:12:39.165Z,12.37
2022-09-25T10:13:39.087Z,12.51
2022-09-25T10:14:39.079Z,12.48
2022-09-25T10:15:39.117Z,12.31
2022-09-25T10:16:39.068Z,12.30
2022-09-25T10:17:39.040Z,12.07
2022-09-25T10:18:39.061Z,12.16
2022-09-25T10:19:39.028Z,12.12
2022-09-25T10:20:39.014Z,12.18
2022-09-25T10:21:39.000Z,12.13
2022-09-25T10:22:39.006Z,11.93
2022-09-25T10:23:38.978Z,11.94
2022-09-25T10:24:39.030Z,11.90
2022-09-25T10:25:38.961Z,11.64
2022-09-25T10:26:38.966Z,11.74
2022-09-25T10:27:38.935Z,11.85
2022-09-25T10:28:38.945Z,11.82
2022-09-25T10:29:38.914Z,11.79
2022-09-25T10:30:38.922Z,11.85
2022-09-25T10:31:38.984Z,11.87
2022-09-25T10:32:38.883Z,11.85
2022-09-25T10:33:38.867Z,11.98
2022-09-25T10:34:38.879Z,12.07
2022-09-25T10:35:38.867Z,11.98
2022-09-25T10:36:38.837Z,11.87
2022-09-25T10:37:38.897Z,11.81
2022-09-25T10:38:38.823Z,11.63
2022-09-25T10:39:44.654Z,11.62
2022-09-25T10:40:39.855Z,11.59
2022-09-25T10:41:38.798Z,11.66
2022-09-25T10:42:38.775Z,11.27
2022-09-25T10:43:38.831Z,11.08
2022-09-25T10:44:38.751Z,11.06
2022-09-25T10:45:38.752Z,10.95
2022-09-25T10:46:38.857Z,11.06
2022-09-25T10:47:38.721Z,10.95
2022-09-25T10:48:38.707Z,11.05
2022-09-25T10:49:38.710Z,11.05
2022-09-25T10:50:38.794Z,11.02
2022-09-25T10:51:38.678Z,11.02
2022-09-25T10:52:38.669Z,10.90
2022-09-25T10:53:38.652Z,10.95
2022-09-25T10:54:44.396Z,11.05
2022-09-25T10:55:39.690Z,11.11
2022-09-25T10:56:38.635Z,11.09
2022-09-25T10:57:38.738Z,11.02
2022-09-25T10:58:38.605Z,11.08
2022-09-25T10:59:38.615Z,11.13
2022-09-25T11:00:38.572Z,11.17
2022-09-25T11:01:38.825Z,11.13
2022-09-25T11:02:38.609Z,11.13
2022-09-25T11:03:38.539Z,11.26
2022-09-25T11:04:38.544Z,11.31
2022-09-25T11:05:38.548Z,11.46
2022-09-25T11:06:38.531Z,11.69
2022-09-25T11:07:38.507Z,11.69
2022-09-25T11:08:38.496Z,11.72
2022-09-25T11:09:38.497Z,11.60
2022-09-25T11:10:38.466Z,11.75
2022-09-25T11:11:38.470Z,11.81
2022-09-25T11:12:38.511Z,11.66
2022-09-25T11:13:38.434Z,11.67
2022-09-25T11:14:38.436Z,11.75
2022-09-25T11:15:38.409Z,11.85
2022-09-25T11:16:38.458Z,11.66
2022-09-25T11:17:38.390Z,11.63
2022-09-25T11:18:38.451Z,11.57
2022-09-25T11:19:38.359Z,11.54
2022-09-25T11:20:38.376Z,11.63
2022-09-25T11:21:38.341Z,11.46
2022-09-25T11:22:38.357Z,11.46
2022-09-25T11:23:38.331Z,11.41
2022-09-25T11:24:38.369Z,11.24
2022-09-25T11:25:38.297Z,11.26
2022-09-25T11:26:38.299Z,11.21
2022-09-25T11:27:38.331Z,11.26
2022-09-25T11:28:38.272Z,11.44
2022-09-25T11:29:38.253Z,11.48
2022-09-25T11:30:38.350Z,11.38
2022-09-25T11:31:38.232Z,11.44
2022-09-25T11:32:38.228Z,11.49
2022-09-25T11:33:38.222Z,11.59
2022-09-25T11:34:38.209Z,11.63
2022-09-25T11:35:38.186Z,11.63
2022-09-25T11:36:38.233Z,11.67
2022-09-25T11:37:38.169Z,11.54
2022-09-25T11:38:38.180Z,11.59
2022-09-25T11:39:38.150Z,11.49
2022-09-25T11:40:38.225Z,11.67
2022-09-25T11:41:38.126Z,11.49
2022-09-25T11:42:38.111Z,11.30
2022-09-25T11:43:38.104Z,11.31
2022-09-25T11:44:38.087Z,11.49
2022-09-25T11:45:38.090Z,11.48
2022-09-25T11:46:38.066Z,11.48
2022-09-25T11:47:38.063Z,11.70
2022-09-25T11:48:38.101Z,11.67
2022-09-25T11:49:38.036Z,11.82
2022-09-25T11:50:38.020Z,11.67
2022-09-25T11:51:38.024Z,11.74
2022-09-25T11:52:38.000Z,11.53
2022-09-25T11:53:37.992Z,11.81
2022-09-25T11:54:38.378Z,11.79
2022-09-25T11:55:42.778Z,11.85
2022-09-25T11:56:38.970Z,11.64
2022-09-25T11:57:37.944Z,11.57
2022-09-25T11:58:37.991Z,11.63
2022-09-25T11:59:37.922Z,11.70
2022-09-25T12:00:37.964Z,11.84
2022-09-25T12:01:38.110Z,12.03
2022-09-25T12:02:37.972Z,12.01
2022-09-25T12:03:37.880Z,12.05
2022-09-25T12:04:41.329Z,12.30
2022-09-25T12:05:37.863Z,12.30
2022-09-25T12:06:37.933Z,12.36
2022-09-25T12:07:37.906Z,12.38
2022-09-25T12:08:37.831Z,12.16
2022-09-25T12:09:37.818Z,12.16
2022-09-25T12:10:37.878Z,12.33
2022-09-25T12:11:37.881Z,12.52
2022-09-25T12:12:37.803Z,12.52
2022-09-25T12:13:37.785Z,12.34
2022-09-25T12:14:37.764Z,12.29
2022-09-25T12:15:37.748Z,12.23
2022-09-25T12:16:37.870Z,12.08
2022-09-25T12:17:37.766Z,12.00
2022-09-25T12:18:37.730Z,12.04
2022-09-25T12:19:37.713Z,11.93
2022-09-25T12:20:37.750Z,11.82
2022-09-25T12:21:37.683Z,11.77
2022-09-25T12:22:37.689Z,11.79
2022-09-25T12:23:37.659Z,11.85
2022-09-25T12:24:37.652Z,11.84
2022-09-25T12:25:37.647Z,11.87
2022-09-25T12:26:37.667Z,11.98
2022-09-25T12:27:37.670Z,12.18
2022-09-25T12:28:37.604Z,12.03
2022-09-25T12:29:37.611Z,12.07
2022-09-25T12:30:37.664Z,12.05
2022-09-25T12:31:37.578Z,12.04
2022-09-25T12:32:37.565Z,12.07
2022-09-25T12:33:37.564Z,12.01
2022-09-25T12:34:37.560Z,12.00
2022-09-25T12:35:37.532Z,12.25
2022-09-25T12:36:37.523Z,12.08
2022-09-25T12:37:37.623Z,12.15
2022-09-25T12:38:37.526Z,12.18
2022-09-25T12:39:37.494Z,12.33
2022-09-25T12:40:37.537Z,12.41
2022-09-25T12:41:37.463Z,12.38
2022-09-25T12:42:37.478Z,12.43
2022-09-25T12:43:37.549Z,12.52
2022-09-25T12:44:37.440Z,12.62
2022-09-25T12:45:37.461Z,12.73
2022-09-25T12:46:37.477Z,12.74
2022-09-25T12:47:37.410Z,12.88
2022-09-25T12:48:37.392Z,12.98
2022-09-25T12:49:37.655Z,13.04
2022-09-25T12:50:37.369Z,13.06
2022-09-25T12:51:37.358Z,13.10
2022-09-25T12:52:37.342Z,13.03
2022-09-25T12:53:37.348Z,13.09
2022-09-25T12:54:37.402Z,12.96
2022-09-25T12:55:37.315Z,12.96
2022-09-25T12:56:37.304Z,12.81
2022-09-25T12:57:37.357Z,12.91
2022-09-25T12:58:37.306Z,12.98
2022-09-25T12:59:38.044Z,12.91
2022-09-25T13:00:37.266Z,12.87
2022-09-25T13:01:37.399Z,12.98
2022-09-25T13:02:37.286Z,13.10
2022-09-25T13:03:37.226Z,13.31
2022-09-25T13:04:37.218Z,13.17
2022-09-25T13:05:37.207Z,13.12
2022-09-25T13:06:37.199Z,12.98
2022-09-25T13:07:37.181Z,13.10
2022-09-25T13:08:37.177Z,13.32